createdAt,value
2023-04-28T00:02:07.078Z,39.90
2023-04-28T00:04:33.703Z,39.80
2023-04-28T00:07:00.388Z,39.70
2023-04-28T00:09:26.864Z,39.80
2023-04-28T00:11:53.327Z,39.70
2023-04-28T00:14:19.832Z,39.90
2023-04-28T00:16:46.539Z,39.90
2023-04-28T00:19:13.282Z,39.70
2023-04-28T00:21:39.752Z,39.80
2023-04-28T00:24:06.219Z,39.80
2023-04-28T00:26:32.675Z,39.80
2023-04-28T00:28:59.155Z,39.80
2023-04-28T00:31:25.644Z,39.80
2023-04-28T00:33:52.164Z,39.90
2023-04-28T00:36:18.644Z,39.80
2023-04-28T00:38:45.121Z,39.80
2023-04-28T00:41:11.595Z,39.90
2023-04-28T00:43:38.091Z,40.10
2023-04-28T00:46:04.586Z,40.00
2023-04-28T00:48:31.105Z,40.00
2023-04-28T00:50:57.576Z,40.00
2023-04-28T00:53:24.052Z,40.10
2023-04-28T00:55:50.529Z,40.10
2023-04-28T00:58:17.018Z,40.20
2023-04-28T01:00:44.965Z,40.10
2023-04-28T01:03:11.544Z,40.10
2023-04-28T01:05:38.174Z,40.00
2023-04-28T01:08:04.668Z,40.10
2023-04-28T01:10:31.150Z,40.30
2023-04-28T01:12:57.620Z,40.20
2023-04-28T01:15:24.076Z,40.30
2023-04-28T01:17:50.559Z,40.30
2023-04-28T01:20:17.066Z,40.30
2023-04-28T01:22:43.561Z,40.40
2023-04-28T01:25:10.041Z,40.40
2023-04-28T01:27:36.521Z,40.40
2023-04-28T01:30:03.005Z,40.50
2023-04-28T01:32:33.287Z,40.50
2023-04-28T01:34:59.805Z,40.40
2023-04-28T01:37:26.301Z,40.30
2023-04-28T01:39:52.801Z,40.40
2023-04-28T01:42:19.277Z,40.40
2023-04-28T01:44:45.755Z,40.40
2023-04-28T01:47:12.241Z,40.40
2023-04-28T01:49:38.727Z,40.50
2023-04-28T01:52:05.197Z,40.50
2023-04-28T01:54:31.806Z,40.60
2023-04-28T01:56:58.303Z,40.50
2023-04-28T01:59:24.762Z,40.60
2023-04-28T02:01:51.277Z,40.60
2023-04-28T02:04:18.079Z,40.70
2023-04-28T02:06:44.813Z,40.80
2023-04-28T02:09:11.298Z,40.80
2023-04-28T02:11:37.763Z,40.80
2023-04-28T02:14:04.233Z,40.80
2023-04-28T02:16:30.798Z,40.90
2023-04-28T02:18:57.302Z,40.80
2023-04-28T02:21:23.787Z,40.90
2023-04-28T02:23:50.246Z,41.10
2023-04-28T02:26:16.735Z,41.20
2023-04-28T02:28:43.219Z,41.20
2023-04-28T02:31:09.756Z,41.30
2023-04-28T02:33:36.289Z,41.40
2023-04-28T02:36:02.769Z,41.50
2023-04-28T02:38:29.264Z,41.60
2023-04-28T02:40:55.730Z,41.60
2023-04-28T02:43:22.218Z,41.60
2023-04-28T02:45:48.688Z,41.60
2023-04-28T02:48:15.178Z,41.60
2023-04-28T02:50:41.676Z,41.70
2023-04-28T02:53:08.133Z,41.80
2023-04-28T02:55:34.610Z,41.70
2023-04-28T02:58:01.203Z,41.90
2023-04-28T03:00:27.680Z,41.90
2023-04-28T03:02:54.294Z,42.00
2023-04-28T03:05:20.838Z,42.10
2023-04-28T03:07:47.304Z,42.10
2023-04-28T03:10:13.774Z,42.10
2023-04-28T03:12:40.241Z,42.10
2023-04-28T03:15:06.720Z,42.30
2023-04-28T03:17:33.297Z,42.50
2023-04-28T03:19:59.830Z,42.70
2023-04-28T03:22:26.295Z,43.00
2023-04-28T03:24:52.781Z,42.90
2023-04-28T03:27:19.263Z,43.10
2023-04-28T03:29:45.744Z,43.30
2023-04-28T03:32:12.260Z,43.10
2023-04-28T03:34:38.768Z,43.30
2023-04-28T03:37:05.241Z,43.60
2023-04-28T03:39:31.709Z,43.60
2023-04-28T03:41:58.184Z,43.60
2023-04-28T03:44:24.679Z,43.80
2023-04-28T03:46:51.137Z,43.70
2023-04-28T03:49:17.605Z,43.90
2023-04-28T03:51:44.093Z,43.90
2023-04-28T03:54:10.567Z,44.00
2023-04-28T03:56:37.045Z,44.00
2023-04-28T03:59:03.512Z,44.30
2023-04-28T04:01:29.991Z,44.20
2023-04-28T04:03:56.823Z,44.40
2023-04-28T04:06:23.451Z,44.50
2023-04-28T04:08:49.958Z,44.70
2023-04-28T04:11:16.418Z,44.70
2023-04-28T04:13:42.886Z,44.80
2023-04-28T04:16:09.370Z,44.80
2023-04-28T04:18:35.909Z,45.40
2023-04-28T04:21:02.384Z,45.40
2023-04-28T04:23:28.861Z,45.30
2023-04-28T04:25:55.332Z,45.50
2023-04-28T04:28:21.812Z,45.50
2023-04-28T04:30:48.340Z,45.50
2023-04-28T04:33:14.820Z,46.00
2023-04-28T04:35:41.291Z,45.80
2023-04-28T04:38:07.753Z,45.90
2023-04-28T04:40:39.168Z,45.80
2023-04-28T04:43:05.645Z,46.30
2023-04-28T04:45:32.130Z,46.20
2023-04-28T04:47:58.624Z,46.50
2023-04-28T04:50:25.105Z,46.60
2023-04-28T04:52:57.218Z,46.80
2023-04-28T04:55:23.712Z,46.60
2023-04-28T04:57:50.190Z,46.40
2023-04-28T05:00:16.654Z,46.60
2023-04-28T05:02:43.252Z,46.80
2023-04-28T05:05:20.717Z,46.90
2023-04-28T05:07:48.062Z,47.10
2023-04-28T05:10:14.533Z,47.10
2023-04-28T05:12:41.013Z,47.30
2023-04-28T05:15:07.492Z,47.50
2023-04-28T05:17:34.033Z,47.50
2023-04-28T05:20:00.519Z,47.60
2023-04-28T05:22:27.005Z,47.50
2023-04-28T05:24:53.507Z,47.50
2023-04-28T05:27:19.981Z,47.70
2023-04-28T05:29:46.459Z,47.70
2023-04-28T05:32:12.962Z,48.00
2023-04-28T05:34:39.479Z,47.80
2023-04-28T05:37:05.962Z,48.00
2023-04-28T05:39:32.445Z,48.30
2023-04-28T05:41:58.920Z,48.10
2023-04-28T05:44:25.412Z,48.20
2023-04-28T05:46:51.975Z,48.60
2023-04-28T05:49:18.494Z,48.20
2023-04-28T05:51:44.975Z,48.50
2023-04-28T05:54:11.456Z,48.80
2023-04-28T05:56:37.936Z,48.60
2023-04-28T05:59:04.503Z,48.60
2023-04-28T06:01:31.048Z,48.40
2023-04-28T06:03:57.691Z,48.80
2023-04-28T06:06:24.417Z,48.60
2023-04-28T06:08:50.889Z,48.80
2023-04-28T06:11:17.390Z,48.60
2023-04-28T06:13:43.851Z,48.60
2023-04-28T06:16:10.386Z,48.60
2023-04-28T06:18:36.904Z,48.90
2023-04-28T06:21:03.375Z,48.80
2023-04-28T06:23:29.838Z,48.90
2023-04-28T06:25:56.294Z,48.80
2023-04-28T06:28:22.782Z,48.80
2023-04-28T06:30:49.271Z,48.60
2023-04-28T06:33:15.746Z,48.60
2023-04-28T06:35:42.262Z,48.60
2023-04-28T06:38:08.731Z,48.80
2023-04-28T06:40:35.216Z,48.90
2023-04-28T06:43:01.682Z,49.00
2023-04-28T06:45:28.137Z,49.00
2023-04-28T06:47:54.633Z,49.30
2023-04-28T06:50:21.116Z,49.30
2023-04-28T06:52:47.604Z,49.50
2023-04-28T06:55:14.061Z,49.30
2023-04-28T06:57:40.545Z,49.20
2023-04-28T07:00:07.040Z,49.20
2023-04-28T07:02:33.620Z,49.30
2023-04-28T07:05:00.204Z,49.60
2023-04-28T07:07:26.685Z,49.70
2023-04-28T07:09:53.182Z,49.50
2023-04-28T07:12:19.672Z,49.80
2023-04-28T07:14:51.296Z,50.20
2023-04-28T07:17:17.760Z,50.10
2023-04-28T07:19:44.220Z,49.90
2023-04-28T07:22:10.695Z,50.00
2023-04-28T07:24:37.181Z,50.10
2023-04-28T07:27:03.671Z,50.20
2023-04-28T07:29:30.149Z,50.00
2023-04-28T07:31:56.651Z,50.30
2023-04-28T07:34:23.135Z,50.40
2023-04-28T07:36:49.590Z,50.40
2023-04-28T07:39:16.068Z,50.10
2023-04-28T07:41:42.548Z,50.50
2023-04-28T07:44:09.016Z,50.60
2023-04-28T07:46:35.631Z,50.10
2023-04-28T07:49:02.127Z,50.20
2023-04-28T07:51:28.633Z,50.30
2023-04-28T07:53:55.102Z,50.40
2023-04-28T07:56:21.549Z,50.10
2023-04-28T07:58:48.044Z,50.10
2023-04-28T08:01:14.549Z,51.30
2023-04-28T08:03:41.254Z,51.10
2023-04-28T08:06:07.915Z,51.00
2023-04-28T08:08:34.425Z,51.60
2023-04-28T08:11:00.850Z,51.80
2023-04-28T08:13:27.319Z,51.30
2023-04-28T08:15:53.841Z,52.00
2023-04-28T08:18:20.398Z,51.40
2023-04-28T08:20:46.899Z,51.80
2023-04-28T08:23:13.390Z,51.80
2023-04-28T08:25:39.856Z,51.60
2023-04-28T08:28:06.330Z,51.20
2023-04-28T08:30:32.802Z,51.10
2023-04-28T08:32:59.299Z,50.80
2023-04-28T08:35:25.772Z,50.60
2023-04-28T08:37:52.265Z,50.50
2023-04-28T08:40:18.751Z,50.40
2023-04-28T08:42:45.229Z,50.30
2023-04-28T08:45:11.910Z,50.50
2023-04-28T08:47:38.503Z,50.40
2023-04-28T08:50:05.157Z,50.30
2023-04-28T08:52:31.640Z,50.40
2023-04-28T08:54:58.120Z,50.70
2023-04-28T08:57:24.613Z,50.80
2023-04-28T08:59:51.075Z,50.70
2023-04-28T09:02:17.661Z,50.70
2023-04-28T09:04:44.342Z,50.80
2023-04-28T09:07:11.024Z,50.90
2023-04-28T09:09:39.170Z,50.80
2023-04-28T09:12:05.921Z,50.80
2023-04-28T09:14:32.391Z,50.90
2023-04-28T09:16:59.300Z,50.80
2023-04-28T09:19:25.813Z,50.80
2023-04-28T09:21:52.310Z,50.90
2023-04-28T09:24:19.001Z,50.90
2023-04-28T09:26:45.596Z,50.90
2023-04-28T09:29:12.092Z,51.00
2023-04-28T09:31:38.632Z,50.90
2023-04-28T09:34:05.837Z,50.90
2023-04-28T09:36:32.294Z,51.00
2023-04-28T09:38:58.781Z,51.10
2023-04-28T09:41:25.267Z,51.20
2023-04-28T09:43:51.776Z,51.30
2023-04-28T09:46:18.297Z,51.40
2023-04-28T09:48:44.819Z,51.40
2023-04-28T09:51:13.080Z,51.40
2023-04-28T09:53:39.788Z,51.60
2023-04-28T09:56:06.274Z,51.50
2023-04-28T09:58:32.781Z,51.50
2023-04-28T10:00:59.320Z,51.60
2023-04-28T10:04:07.031Z,51.60
2023-04-28T10:06:12.278Z,51.50
2023-04-28T10:08:38.734Z,51.60
2023-04-28T10:11:05.251Z,51.60
2023-04-28T10:13:31.733Z,51.60
2023-04-28T10:15:58.503Z,51.60
2023-04-28T10:18:25.177Z,51.60
2023-04-28T10:20:51.640Z,51.60
2023-04-28T10:23:18.120Z,51.60
2023-04-28T10:25:44.603Z,51.70
2023-04-28T10:28:15.450Z,51.60
2023-04-28T10:30:41.904Z,51.60
2023-04-28T10:33:08.429Z,51.60
2023-04-28T10:35:35.115Z,51.60
2023-04-28T10:38:01.624Z,51.60
2023-04-28T10:40:28.121Z,51.60
2023-04-28T10:42:54.583Z,51.70
2023-04-28T10:45:21.059Z,51.60
2023-04-28T10:47:47.519Z,51.70
2023-04-28T10:50:14.076Z,51.60
2023-04-28T10:52:40.593Z,51.70
2023-04-28T10:55:19.241Z,51.70
2023-04-28T10:57:48.178Z,51.70
2023-04-28T11:00:14.829Z,51.70
2023-04-28T11:02:43.807Z,51.80
2023-04-28T11:05:11.239Z,51.80
2023-04-28T11:07:37.773Z,51.90
2023-04-28T11:10:04.243Z,51.90
2023-04-28T11:12:31.182Z,51.80
2023-04-28T11:14:58.142Z,51.80
2023-04-28T11:17:24.669Z,51.80
2023-04-28T11:19:51.187Z,51.90
2023-04-28T11:22:17.678Z,52.00
2023-04-28T11:24:44.157Z,52.00
2023-04-28T11:27:10.624Z,51.80
2023-04-28T11:29:37.100Z,51.90
2023-04-28T11:32:03.713Z,52.00
2023-04-28T11:34:30.321Z,52.00
2023-04-28T11:36:56.782Z,52.20
2023-04-28T11:39:27.510Z,52.10
2023-04-28T11:41:53.980Z,52.10
2023-04-28T11:44:20.499Z,52.10
2023-04-28T11:46:46.980Z,52.20
2023-04-28T11:49:13.481Z,52.20
2023-04-28T11:51:39.955Z,52.30
2023-04-28T11:54:06.445Z,52.20
2023-04-28T11:56:32.921Z,52.20
2023-04-28T11:58:59.979Z,52.20
2023-04-28T12:01:27.667Z,52.20
2023-04-28T12:03:54.192Z,52.10
2023-04-28T12:06:20.729Z,52.20
2023-04-28T12:08:47.202Z,52.30
2023-04-28T12:11:13.690Z,52.30
2023-04-28T12:13:40.169Z,52.30
2023-04-28T12:16:06.734Z,52.20
2023-04-28T12:18:33.255Z,52.30
2023-04-28T12:20:59.731Z,52.40
2023-04-28T12:23:26.195Z,52.50
2023-04-28T12:25:52.683Z,52.50
2023-04-28T12:28:19.169Z,52.50
2023-04-28T12:30:45.664Z,52.40
2023-04-28T12:33:12.152Z,52.40
2023-04-28T12:35:38.620Z,52.50
2023-04-28T12:38:05.106Z,52.50
2023-04-28T12:40:31.582Z,52.50
2023-04-28T12:42:58.053Z,52.50
2023-04-28T12:45:24.530Z,52.50
2023-04-28T12:47:51.015Z,52.50
2023-04-28T12:50:20.237Z,52.60
2023-04-28T12:52:46.702Z,52.80
2023-04-28T12:55:13.203Z,52.70
2023-04-28T12:57:39.880Z,52.70
2023-04-28T13:00:06.437Z,52.80
2023-04-28T13:02:33.037Z,52.80
2023-04-28T13:04:59.759Z,52.70
2023-04-28T13:07:26.236Z,52.80
2023-04-28T13:09:52.726Z,52.90
2023-04-28T13:12:19.194Z,52.80
2023-04-28T13:14:45.670Z,52.90
2023-04-28T13:17:12.162Z,52.90
2023-04-28T13:19:38.660Z,52.90
2023-04-28T13:22:05.210Z,52.90
2023-04-28T13:24:31.754Z,53.00
2023-04-28T13:26:58.228Z,53.00
2023-04-28T13:29:24.694Z,53.00
2023-04-28T13:31:51.296Z,53.10
2023-04-28T13:34:17.837Z,53.10
2023-04-28T13:36:44.366Z,53.30
2023-04-28T13:39:10.848Z,53.30
2023-04-28T13:41:37.320Z,53.40
2023-04-28T13:44:03.783Z,53.30
2023-04-28T13:46:30.260Z,53.40
2023-04-28T13:48:56.725Z,53.50
2023-04-28T13:51:23.230Z,53.80
2023-04-28T13:53:49.685Z,53.90
2023-04-28T13:56:16.181Z,54.00
2023-04-28T13:58:42.650Z,54.10
2023-04-28T14:01:09.165Z,54.10
2023-04-28T14:03:35.773Z,54.00
2023-04-28T14:06:03.646Z,54.20
2023-04-28T14:08:30.106Z,54.20
2023-04-28T14:10:56.588Z,54.30
2023-04-28T14:13:23.061Z,54.30
2023-04-28T14:15:58.515Z,54.20
2023-04-28T14:18:25.941Z,54.00
2023-04-28T14:20:52.422Z,54.50
2023-04-28T14:23:18.895Z,54.50
2023-04-28T14:25:45.357Z,54.90
2023-04-28T14:28:11.844Z,54.60
2023-04-28T14:30:38.320Z,54.70
2023-04-28T14:33:04.885Z,54.70
2023-04-28T14:35:31.401Z,54.90
2023-04-28T14:37:57.875Z,54.80
2023-04-28T14:40:24.334Z,54.80
2023-04-28T14:42:51.680Z,54.70
2023-04-28T14:45:18.161Z,54.60
2023-04-28T14:47:44.663Z,55.00
2023-04-28T14:50:13.212Z,55.00
2023-04-28T14:52:40.445Z,55.00
2023-04-28T14:55:08.019Z,55.20
2023-04-28T14:57:34.504Z,55.20
2023-04-28T15:00:00.985Z,55.20
2023-04-28T15:02:28.047Z,55.20
2023-04-28T15:04:54.723Z,55.50
2023-04-28T15:07:21.352Z,55.40
2023-04-28T15:09:47.827Z,55.20
2023-04-28T15:12:14.285Z,55.30
2023-04-28T15:14:40.743Z,55.40
2023-04-28T15:17:07.215Z,55.70
2023-04-28T15:19:33.694Z,56.10
2023-04-28T15:22:03.699Z,55.70
2023-04-28T15:24:30.173Z,55.80
2023-04-28T15:26:56.673Z,56.90
2023-04-28T15:29:23.158Z,57.80
2023-04-28T15:31:49.677Z,58.00
2023-04-28T15:34:16.155Z,57.80
2023-04-28T15:36:42.648Z,57.50
2023-04-28T15:39:09.113Z,57.60
2023-04-28T15:41:35.577Z,57.40
2023-04-28T15:44:02.061Z,57.30
2023-04-28T15:46:28.532Z,57.10
2023-04-28T15:48:55.012Z,57.50
2023-04-28T15:51:21.489Z,57.40
2023-04-28T15:53:47.957Z,57.40
2023-04-28T15:56:14.438Z,57.10
2023-04-28T15:58:40.932Z,57.20
2023-04-28T16:01:07.494Z,57.10
2023-04-28T16:03:34.138Z,57.10
2023-04-28T16:06:00.785Z,56.90
2023-04-28T16:08:27.298Z,57.20
2023-04-28T16:10:53.795Z,57.40
2023-04-28T16:13:20.286Z,57.30
2023-04-28T16:15:46.827Z,57.00
2023-04-28T16:18:13.331Z,57.20
2023-04-28T16:20:39.853Z,57.10
2023-04-28T16:23:06.338Z,56.90
2023-04-28T16:25:32.811Z,57.20
2023-04-28T16:27:59.290Z,57.30
2023-04-28T16:30:25.761Z,57.30
2023-04-28T16:32:52.231Z,57.50
2023-04-28T16:35:18.729Z,57.70
2023-04-28T16:37:45.212Z,57.70
2023-04-28T16:40:11.708Z,57.60
2023-04-28T16:42:38.212Z,57.80
2023-04-28T16:45:04.674Z,57.60
2023-04-28T16:47:33.814Z,57.90
2023-04-28T16:50:00.305Z,57.80
2023-04-28T16:52:26.788Z,58.00
2023-04-28T16:54:53.270Z,57.70
2023-04-28T16:57:19.745Z,58.10
2023-04-28T16:59:46.204Z,58.20
2023-04-28T17:02:12.688Z,58.10
2023-04-28T17:04:39.405Z,57.90
2023-04-28T17:07:05.991Z,57.80
2023-04-28T17:09:32.478Z,58.20
2023-04-28T17:11:58.938Z,58.30
2023-04-28T17:14:25.415Z,58.30
2023-04-28T17:16:51.890Z,58.50
2023-04-28T17:19:18.356Z,58.70
2023-04-28T17:21:44.824Z,58.90
2023-04-28T17:24:11.305Z,58.40
2023-04-28T17:26:37.775Z,58.40
2023-04-28T17:29:04.262Z,58.70
2023-04-28T17:31:30.762Z,58.50
2023-04-28T17:33:57.237Z,58.60
2023-04-28T17:36:23.706Z,58.40
2023-04-28T17:38:50.192Z,58.70
2023-04-28T17:41:16.677Z,58.50
2023-04-28T17:43:43.179Z,58.80
2023-04-28T17:46:09.714Z,58.80
2023-04-28T17:48:36.225Z,58.50
2023-04-28T17:51:02.705Z,58.70
2023-04-28T17:53:33.825Z,58.90
2023-04-28T17:56:00.296Z,58.60
2023-04-28T17:58:26.862Z,59.10
2023-04-28T18:00:53.328Z,59.20
2023-04-28T18:03:19.916Z,59.00
2023-04-28T18:05:46.451Z,59.20
2023-04-28T18:08:12.940Z,59.20
2023-04-28T18:10:39.414Z,59.00
2023-04-28T18:13:05.885Z,59.10
2023-04-28T18:15:32.360Z,59.40
2023-04-28T18:17:58.841Z,59.50
2023-04-28T18:20:25.390Z,59.50
2023-04-28T18:22:51.879Z,59.50
2023-04-28T18:25:18.370Z,59.40
2023-04-28T18:27:44.834Z,59.40
2023-04-28T18:30:11.326Z,59.30
2023-04-28T18:32:37.771Z,59.50
2023-04-28T18:35:04.237Z,59.50
2023-04-28T18:37:30.702Z,59.30
2023-04-28T18:39:57.236Z,59.40
2023-04-28T18:42:23.696Z,59.30
2023-04-28T18:44:50.362Z,59.40
2023-04-28T18:47:16.970Z,59.40
2023-04-28T18:49:43.547Z,59.50
2023-04-28T18:52:10.006Z,59.40
2023-04-28T18:54:36.499Z,59.40
2023-04-28T18:57:02.986Z,59.30
2023-04-28T18:59:29.461Z,59.30
2023-04-28T19:01:55.932Z,59.30
2023-04-28T19:04:22.541Z,59.30
2023-04-28T19:06:49.169Z,59.40
2023-04-28T19:09:15.648Z,59.40
2023-04-28T19:11:42.104Z,59.40
2023-04-28T19:14:08.602Z,59.30
2023-04-28T19:16:35.092Z,59.50
2023-04-28T19:19:01.563Z,59.40
2023-04-28T19:21:28.038Z,59.40
2023-04-28T19:23:54.524Z,59.40
2023-04-28T19:26:21.079Z,59.40
2023-04-28T19:28:47.617Z,59.50
2023-04-28T19:31:14.109Z,59.50
2023-04-28T19:33:40.593Z,59.50
2023-04-28T19:36:07.073Z,59.60
2023-04-28T19:38:33.545Z,59.50
2023-04-28T19:41:00.023Z,59.60
2023-04-28T19:43:26.498Z,59.60
2023-04-28T19:45:52.984Z,59.60
2023-04-28T19:48:19.469Z,59.60
2023-04-28T19:50:45.950Z,59.50
2023-04-28T19:53:12.419Z,59.60
2023-04-28T19:55:38.907Z,59.60
2023-04-28T19:58:05.382Z,59.70
2023-04-28T20:00:32.673Z,59.60
2023-04-28T20:02:59.450Z,59.60
2023-04-28T20:05:26.042Z,59.60
2023-04-28T20:07:54.149Z,59.70
2023-04-28T20:10:22.386Z,59.70
2023-04-28T20:12:52.141Z,59.80
2023-04-28T20:15:18.736Z,59.80
2023-04-28T20:17:45.334Z,59.80
2023-04-28T20:20:11.816Z,59.70
2023-04-28T20:22:38.279Z,59.80
2023-04-28T20:25:09.959Z,59.90
2023-04-28T20:27:36.415Z,59.80
2023-04-28T20:30:02.901Z,59.90
2023-04-28T20:32:29.374Z,59.90
2023-04-28T20:34:55.854Z,59.90
2023-04-28T20:37:22.339Z,59.90
2023-04-28T20:39:48.936Z,59.90
2023-04-28T20:42:15.551Z,60.00
2023-04-28T20:44:42.034Z,59.90
2023-04-28T20:47:08.524Z,60.00
2023-04-28T20:49:35.105Z,59.90
2023-04-28T20:52:01.587Z,60.00
2023-04-28T20:54:28.117Z,60.10
2023-04-28T20:56:54.605Z,60.00
2023-04-28T20:59:21.104Z,60.00
2023-04-28T21:01:47.619Z,60.10
2023-04-28T21:04:14.333Z,60.10
2023-04-28T21:06:40.901Z,60.20
2023-04-28T21:09:07.396Z,60.10
2023-04-28T21:11:33.903Z,60.10
2023-04-28T21:14:00.401Z,60.20
2023-04-28T21:16:26.934Z,60.30
2023-04-28T21:18:53.446Z,60.40
2023-04-28T21:21:19.933Z,60.40
2023-04-28T21:23:46.387Z,60.40
2023-04-28T21:26:12.948Z,60.50
2023-04-28T21:28:39.514Z,60.60
2023-04-28T21:31:06.065Z,60.60
2023-04-28T21:33:32.541Z,60.50
2023-04-28T21:35:59.042Z,60.60
2023-04-28T21:38:25.499Z,60.60
2023-04-28T21:40:51.994Z,60.60
2023-04-28T21:43:18.464Z,60.70
2023-04-28T21:45:45.022Z,60.70
2023-04-28T21:48:11.593Z,60.80
2023-04-28T21:50:38.108Z,60.70
2023-04-28T21:53:04.558Z,60.90
2023-04-28T21:55:31.047Z,60.90
2023-04-28T21:57:59.965Z,61.00
2023-04-28T22:00:26.752Z,61.00
2023-04-28T22:02:53.326Z,61.10
2023-04-28T22:05:19.862Z,61.20
2023-04-28T22:07:46.314Z,61.20
2023-04-28T22:10:12.824Z,61.20
2023-04-28T22:12:39.303Z,61.30
2023-04-28T22:15:05.772Z,61.40
2023-04-28T22:17:32.246Z,61.30
2023-04-28T22:19:58.749Z,61.40
2023-04-28T22:22:25.221Z,61.40
2023-04-28T22:24:51.690Z,61.50
2023-04-28T22:27:18.167Z,61.70
2023-04-28T22:29:44.640Z,61.70
2023-04-28T22:32:11.114Z,61.80
2023-04-28T22:34:37.586Z,61.80
2023-04-28T22:37:04.103Z,62.10
2023-04-28T22:39:30.596Z,62.20
2023-04-28T22:41:57.068Z,62.70
2023-04-28T22:44:23.528Z,62.80
2023-04-28T22:46:50.069Z,62.70
2023-04-28T22:49:16.639Z,63.00
2023-04-28T22:51:43.124Z,63.20
2023-04-28T22:54:09.581Z,63.40
2023-04-28T22:56:36.084Z,63.50
2023-04-28T22:59:02.563Z,63.50
2023-04-28T23:01:29.064Z,63.70
2023-04-28T23:03:55.686Z,63.80
2023-04-28T23:06:22.293Z,63.80
2023-04-28T23:08:48.748Z,64.00
2023-04-28T23:11:15.234Z,64.20
2023-04-28T23:13:41.709Z,64.20
2023-04-28T23:16:08.227Z,64.20
2023-04-28T23:18:34.719Z,64.20
2023-04-28T23:21:01.210Z,64.20
2023-04-28T23:23:28.043Z,64.20
2023-04-28T23:25:54.542Z,64.10
2023-04-28T23:28:20.998Z,64.30
2023-04-28T23:30:47.461Z,64.40
2023-04-28T23:33:13.928Z,64.30
2023-04-28T23:35:40.417Z,64.30
2023-04-28T23:38:06.885Z,64.30
2023-04-28T23:40:34.098Z,64.40
2023-04-28T23:43:00.588Z,64.40
2023-04-28T23:45:27.102Z,64.30
2023-04-28T23:47:53.599Z,64.40
2023-04-28T23:50:20.126Z,64.40
2023-04-28T23:52:46.619Z,64.30
2023-04-28T23:55:13.161Z,64.30
2023-04-28T23:57:39.733Z,64.10
